• Join FlightAware (Why Join?)
  • Login
  • US Flag 
09:54AM EDT


 

Airport Tracker/Info


-or-


 

Live Flight TrackerFlight Track Log ✈ FDX739 ✈ 16-May-2013 ✈ KLCK - KCLE

Flight Track Log - Related Links

Times and Time Zones

All times are in EDT time to prevent confusion due to time zone crossing. See the FDX739 flight status page for this flight to view local times or setup timezone preferences in your user account.

Time Position Orientation Groundspeed Altitude Reporting Facility
EDT Latitude Longitude Course Direction KTS MPH feet Rate Location/Type
07:02PM 39.8150 -82.9294 223° Southwest 133 153 1,100  Level Indianapolis Center
07:03PM 39.7717 -82.9817 223° Southwest 218 251 2,800 1,320 Climbing Indianapolis Center
07:04PM 39.7422 -83.0117 218° Southwest 248 285 3,500 3,000 Climbing Indianapolis Center
07:04PM 39.7014 -82.9981 166° South 296 341 5,900 3,840 Climbing Indianapolis Center
07:05PM 39.6853 -82.9608 119° Southeast 272 313 7,500 2,640 Climbing Indianapolis Center
07:06PM 39.7317 -82.8747 55° Northeast 298 343 10,200 2,460 Climbing Indianapolis Center
07:07PM 39.8256 -82.7811 37° Northeast 370 426 12,700 2,700 Climbing Indianapolis Center
07:08PM 39.9122 -82.6906 39° Northeast 395 455 15,900 2,940 Climbing Indianapolis Center
07:09PM 40.0042 -82.5967 38° Northeast 414 476 18,800 2,460 Climbing Indianapolis Center
07:10PM 40.0994 -82.4981 38° Northeast 431 496 21,000 960 Climbing Indianapolis Center
07:11PM 40.1950 -82.3994 38° Northeast 434 499 20,900  Descending Indianapolis Center
07:12PM 40.2958 -82.2967 38° Northeast 426 490 21,000 -180 Climbing Indianapolis Center
07:13PM 40.3892 -82.1989 39° Northeast 425 489 20,600 -720 Descending Indianapolis Center
07:14PM 40.4739 -82.1089 39° Northeast 414 476 19,600 -1,020 Descending Cleveland Center
07:15PM 40.5500 -82.0314 38° Northeast 397 457 18,700 -1,740 Descending Cleveland Center
07:16PM 40.6364 -81.9483 36° Northeast 386 444 16,200 -2,460 Descending Cleveland Center
07:17PM 40.7208 -81.8653 37° Northeast 386 444 13,800 -2,520 Descending Cleveland Center
07:17PM 40.7544 -81.8331 36° Northeast 369 425 12,800 -2,220 Descending Cleveland Center
07:18PM 40.8008 -81.7872 37° Northeast 376 433 11,600 -2,220 Descending Cleveland Center
07:18PM 40.8450 -81.7414 38° Northeast 347 399 10,400 -1,620 Descending Cleveland Center
07:19PM 40.8767 -81.7117 35° Northeast 348 400 10,000 -420 Descending Cleveland Center
07:19PM 40.9186 -81.6714 36° Northeast 326 375 10,000  Level Cleveland Center
07:20PM 40.9503 -81.6389 38° Northeast 336 387 10,000  Level Cleveland Center
07:20PM 40.9919 -81.6339 North 316 364 10,000  Level Cleveland Center
07:21PM 41.0294 -81.6539 338° Northwest 286 329 10,000  Level Cleveland Center
07:21PM 41.0708 -81.6767 337° Northwest 291 335 10,000  Level Cleveland Center
07:22PM 41.1125 -81.6939 343° North 280 322 10,000  Level Cleveland Center
07:22PM 41.1478 -81.7108 340° North 271 312 10,000  Level Cleveland Center
07:23PM 41.1850 -81.7172 353° North 274 315 10,000  Level Cleveland Center
07:23PM 41.2164 -81.7203 356° North 267 307 10,000  Level Cleveland Center
07:24PM 41.2600 -81.7239 356° North 269 310 10,000 -600 Level Cleveland Center
07:24PM 41.2894 -81.7161 11° North 270 311 9,400 -1,320 Descending Cleveland Center
07:25PM 41.3292 -81.7086 North 264 304 8,700 -1,680 Descending Cleveland Center
07:25PM 41.3708 -81.6953 14° North 269 310 7,700 -1,800 Descending Cleveland Center
07:26PM 41.4022 -81.6847 14° North 270 311 6,900 -2,340 Descending Cleveland Center
07:26PM 41.4461 -81.6717 13° North 273 314 5,400 -2,520 Descending Cleveland Center
07:27PM 41.4733 -81.6556 24° Northeast 275 316 4,400 -1,380 Descending Cleveland Center
07:27PM 41.5108 -81.6589 356° North 263 303 4,000 -780 Descending Cleveland Center
07:28PM 41.5103 -81.7256 269° West 224 258 3,300 -840 Descending Cleveland Center
07:29PM 41.4617 -81.7744 217° Southwest 197 227 2,300 -960 Descending Cleveland Center
07:30PM 41.4322 -81.8211 230° Southwest 133 153 1,400 -900 Descending Cleveland Center